| time (UTC) | temp F | wind direction | speed knots | gust knots | rain 1hr in | rain 24hr in | rain mn in | humidity % | barometer mb |
| 20260502152149 | 79 | 77 | 0.9 | 4.3 | 0.00 | 0.00 | 0.00 | 25 | 1008.8 |
| 20260502151646 | 79 | 27 | 3.5 | 3.5 | 0.00 | 0.00 | 0.00 | 25 | 1008.9 |
| 20260502151143 | 79 | 31 | 3.5 | 4.3 | 0.00 | 0.00 | 0.00 | 25 | 1008.8 |
| 20260502150641 | 79 | 15 | 0.9 | 3.5 | 0.00 | 0.00 | 0.00 | 27 | 1008.9 |
| 20260502150137 | 78 | 5 | 1.7 | 3.5 | 0.00 | 0.00 | 0.00 | 26 | 1008.7 |
| 20260502130526 | 71 | 18 | 0.0 | 4.3 | 0.00 | 0.00 | 0.00 | 29 | 1007.5 |
| 20260502123509 | 66 | 19 | 1.7 | 1.7 | 0.00 | 0.00 | 0.00 | 35 | 1006.9 |
| 20260502123005 | 67 | 23 | 1.7 | 1.7 | 0.00 | 0.00 | 0.00 | 34 | 1007.2 |
| 20260502122502 | 67 | 0 | 0.9 | 0.9 | 0.00 | 0.00 | 0.00 | 34 | 1006.9 |
| 20260502121959 | 67 | 29 | 0.0 | 1.7 | 0.00 | 0.00 | 0.00 | 34 | 1006.9 |
| 20260502121456 | 68 | 29 | 0.9 | 1.7 | 0.00 | 0.00 | 0.00 | 33 | 1006.8 |
| 20260502120954 | 68 | 40 | 1.7 | 1.7 | 0.00 | 0.00 | 0.00 | 31 | 1006.7 |
| 20260502120450 | 69 | 45 | 1.7 | 1.7 | 0.00 | 0.00 | 0.00 | 31 | 1006.7 |
| 20260502115445 | 70 | 23 | 0.0 | 0.9 | 0.00 | 0.00 | 0.00 | 30 | 1006.7 |
| 20260502114940 | 71 | 29 | 0.0 | 1.7 | 0.00 | 0.00 | 0.00 | 29 | 1006.8 |
| 20260502114437 | 72 | 32 | 1.7 | 2.6 | 0.00 | 0.00 | 0.00 | 27 | 1006.5 |
| 20260502113935 | 72 | 29 | 1.7 | 3.5 | 0.00 | 0.00 | 0.00 | 27 | 1006.4 |
| 20260502113432 | 72 | 26 | 1.7 | 2.6 | 0.00 | 0.00 | 0.00 | 27 | 1006.5 |
| 20260502112931 | 72 | 36 | 1.7 | 5.2 | 0.00 | 0.00 | 0.00 | 27 | 1006.3 |
| 20260502112428 | 72 | 30 | 1.7 | 3.5 | 0.00 | 0.00 | 0.00 | 28 | 1006.5 |
| 20260502111925 | 72 | 7 | 1.7 | 3.5 | 0.00 | 0.00 | 0.00 | 27 | 1006.4 |
| 20260502111422 | 71 | 0 | 2.6 | 2.6 | 0.00 | 0.00 | 0.00 | 28 | 1006.4 |
| 20260502110920 | 71 | 26 | 0.9 | 2.6 | 0.00 | 0.00 | 0.00 | 28 | 1006.5 |
| 20260502110417 | 71 | 22 | 1.7 | 2.6 | 0.00 | 0.00 | 0.00 | 28 | 1006.5 |
| 20260502105914 | 71 | 7 | 1.7 | 2.6 | 0.00 | 0.00 | 0.00 | 28 | 1006.5 |
| 20260502105411 | 71 | 30 | 1.7 | 2.6 | 0.00 | 0.00 | 0.00 | 28 | 1006.6 |
| 20260502104909 | 72 | 15 | 1.7 | 2.6 | 0.00 | 0.00 | 0.00 | 27 | 1006.5 |
| 20260502104406 | 72 | 9 | 1.7 | 2.6 | 0.00 | 0.00 | 0.00 | 27 | 1006.4 |
| 20260502103904 | 71 | 0 | 1.7 | 2.6 | 0.00 | 0.00 | 0.00 | 28 | 1006.3 |
| 20260502103401 | 71 | 16 | 1.7 | 1.7 | 0.00 | 0.00 | 0.00 | 29 | 1006.4 |
| 20260502102858 | 71 | 356 | 1.7 | 2.6 | 0.00 | 0.00 | 0.00 | 28 | 1006.3 |
| 20260502102355 | 71 | 4 | 1.7 | 1.7 | 0.00 | 0.00 | 0.00 | 29 | 1006.3 |
| 20260502101852 | 71 | 36 | 1.7 | 2.6 | 0.00 | 0.00 | 0.00 | 29 | 1006.3 |
| 20260502101350 | 72 | 14 | 1.7 | 1.7 | 0.00 | 0.00 | 0.00 | 29 | 1006.2 |
| 20260502100848 | 73 | 12 | 1.7 | 2.6 | 0.00 | 0.00 | 0.00 | 27 | 1006.4 |
| 20260502100347 | 73 | 16 | 1.7 | 2.6 | 0.00 | 0.00 | 0.00 | 27 | 1006.3 |
| 20260502091321 | 74 | 28 | 1.7 | 3.5 | 0.00 | 0.00 | 0.00 | 26 | 1005.9 |
| 20260502090819 | 74 | 41 | 1.7 | 3.5 | 0.00 | 0.00 | 0.00 | 25 | 1005.9 |
| 20260502090315 | 74 | 24 | 1.7 | 2.6 | 0.00 | 0.00 | 0.00 | 25 | 1006.0 |
| 20260502071210 | 75 | 20 | 2.6 | 2.6 | 0.00 | 0.00 | 0.00 | 26 | 1005.6 |
| 20260502070709 | 75 | 28 | 1.7 | 4.3 | 0.00 | 0.00 | 0.00 | 26 | 1005.5 |
| 20260502070206 | 75 | 14 | 3.5 | 3.5 | 0.00 | 0.00 | 0.00 | 26 | 1005.4 |
| 20260502065704 | 74 | 3 | 2.6 | 4.3 | 0.00 | 0.00 | 0.00 | 26 | 1005.5 |
| 20260502065201 | 74 | 2 | 2.6 | 3.5 | 0.00 | 0.00 | 0.00 | 26 | 1005.2 |
| 20260502064700 | 73 | 16 | 2.6 | 2.6 | 0.00 | 0.00 | 0.00 | 27 | 1005.3 |
| 20260502064157 | 73 | 16 | 1.7 | 1.7 | 0.00 | 0.00 | 0.00 | 29 | 1005.3 |
| 20260502063655 | 73 | 342 | 1.7 | 1.7 | 0.00 | 0.00 | 0.00 | 28 | 1005.2 |
| 20260502063152 | 73 | 12 | 0.9 | 1.7 | 0.00 | 0.00 | 0.00 | 27 | 1005.2 |
| 20260502062649 | 73 | 12 | 0.9 | 1.7 | 0.00 | 0.00 | 0.00 | 28 | 1005.2 |
| 20260502062147 | 74 | 20 | 0.9 | 1.7 | 0.00 | 0.00 | 0.00 | 28 | 1005.4 |
| 20260502061645 | 75 | 0 | 1.7 | 2.6 | 0.00 | 0.00 | 0.00 | 28 | 1005.3 |
| 20260502061142 | 76 | 29 | 0.9 | 1.7 | 0.00 | 0.00 | 0.00 | 26 | 1004.9 |
| 20260502060642 | 75 | 29 | 0.0 | 1.7 | 0.00 | 0.00 | 0.00 | 26 | 1004.9 |
| 20260502060139 | 75 | 26 | 0.9 | 1.7 | 0.00 | 0.00 | 0.00 | 26 | 1004.7 |
| 20260502055637 | 73 | 29 | 0.9 | 1.7 | 0.00 | 0.00 | 0.00 | 30 | 1004.7 |
| 20260502055135 | 73 | 6 | 0.9 | 1.7 | 0.00 | 0.00 | 0.00 | 30 | 1004.6 |
| 20260502054634 | 73 | 18 | 0.9 | 1.7 | 0.00 | 0.00 | 0.00 | 30 | 1004.6 |
| 20260502054131 | 74 | 16 | 1.7 | 1.7 | 0.00 | 0.00 | 0.00 | 28 | 1004.7 |
| 20260502053628 | 73 | 11 | 1.7 | 1.7 | 0.00 | 0.00 | 0.00 | 30 | 1004.9 |
| 20260502053125 | 74 | 6 | 0.9 | 0.9 | 0.00 | 0.00 | 0.00 | 29 | 1004.7 |
| 20260502052623 | 74 | 5 | 0.9 | 1.7 | 0.00 | 0.00 | 0.00 | 28 | 1004.7 |
| 20260502052121 | 74 | 18 | 0.9 | 1.7 | 0.00 | 0.00 | 0.00 | 28 | 1004.7 |
| 20260502051619 | 74 | 14 | 0.9 | 1.7 | 0.00 | 0.00 | 0.00 | 27 | 1004.4 |
| 20260502051117 | 74 | 11 | 1.7 | 1.7 | 0.00 | 0.00 | 0.00 | 28 | 1004.5 |
| 20260502050613 | 74 | 15 | 0.9 | 1.7 | 0.00 | 0.00 | 0.00 | 28 | 1004.7 |
| 20260502050110 | 75 | 12 | 0.9 | 1.7 | 0.00 | 0.00 | 0.00 | 27 | 1004.5 |
| 20260502045606 | 75 | 5 | 0.9 | 1.7 | 0.00 | 0.00 | 0.00 | 27 | 1004.3 |
| 20260502045104 | 75 | 23 | 1.7 | 1.7 | 0.00 | 0.00 | 0.00 | 26 | 1004.3 |
| 20260502044600 | 76 | 15 | 1.7 | 1.7 | 0.00 | 0.00 | 0.00 | 26 | 1004.4 |
| 20260502044057 | 76 | 10 | 1.7 | 1.7 | 0.00 | 0.00 | 0.00 | 26 | 1004.4 |
| 20260502043554 | 77 | 10 | 1.7 | 1.7 | 0.00 | 0.00 | 0.00 | 26 | 1004.5 |
| 20260502043050 | 78 | 10 | 1.7 | 1.7 | 0.00 | 0.00 | 0.00 | 26 | 1004.4 |
| 20260502042545 | 78 | 26 | 0.9 | 0.9 | 0.00 | 0.00 | 0.00 | 25 | 1004.2 |
| 20260502042043 | 79 | 20 | 0.9 | 1.7 | 0.00 | 0.00 | 0.00 | 25 | 1004.5 |
| 20260502041541 | 79 | 23 | 0.9 | 0.9 | 0.00 | 0.00 | 0.00 | 25 | 1004.2 |
| 20260502041037 | 79 | 14 | 0.0 | 0.9 | 0.00 | 0.00 | 0.00 | 25 | 1004.1 |
| 20260502040534 | 78 | 23 | 0.9 | 1.7 | 0.00 | 0.00 | 0.00 | 25 | 1004.0 |
| 20260502040031 | 79 | 20 | 0.9 | 1.7 | 0.00 | 0.00 | 0.00 | 25 | 1003.9 |
| 20260502035527 | 79 | 20 | 0.9 | 1.7 | 0.00 | 0.00 | 0.00 | 25 | 1004.1 |
| 20260502035025 | 79 | 12 | 0.9 | 1.7 | 0.00 | 0.00 | 0.00 | 26 | 1004.0 |
| 20260502034522 | 80 | 29 | 0.9 | 0.9 | 0.00 | 0.00 | 0.00 | 25 | 1003.8 |
| 20260502034021 | 79 | 20 | 0.9 | 0.9 | 0.00 | 0.00 | 0.00 | 25 | 1004.0 |
| 20260502033519 | 78 | 18 | 0.9 | 1.7 | 0.00 | 0.00 | 0.00 | 26 | 1004.0 |
| 20260502033015 | 79 | 16 | 1.7 | 1.7 | 0.00 | 0.00 | 0.00 | 26 | 1003.8 |
| 20260502032511 | 80 | 5 | 1.7 | 1.7 | 0.00 | 0.00 | 0.00 | 26 | 1003.8 |
| 20260502032008 | 80 | 20 | 0.9 | 1.7 | 0.00 | 0.00 | 0.00 | 25 | 1003.7 |
| 20260502031506 | 81 | 29 | 1.7 | 1.7 | 0.00 | 0.00 | 0.00 | 24 | 1003.7 |
| 20260502031004 | 81 | 36 | 1.7 | 1.7 | 0.00 | 0.00 | 0.00 | 23 | 1003.4 |
| 20260502030502 | 82 | 29 | 1.7 | 1.7 | 0.00 | 0.00 | 0.00 | 23 | 1003.4 |
| 20260502030000 | 83 | 23 | 0.9 | 1.7 | 0.00 | 0.00 | 0.00 | 23 | 1003.5 |
| 20260502025457 | 83 | 15 | 0.0 | 1.7 | 0.00 | 0.00 | 0.00 | 22 | 1003.3 |
| 20260502024955 | 83 | 8 | 0.9 | 1.7 | 0.00 | 0.00 | 0.00 | 22 | 1003.2 |
| 20260502024452 | 83 | 18 | 1.7 | 1.7 | 0.00 | 0.00 | 0.00 | 22 | 1003.1 |
| 20260502023950 | 84 | 82 | 0.0 | 1.7 | 0.00 | 0.00 | 0.00 | 22 | 1003.1 |
| 20260502023448 | 84 | 35 | 0.0 | 3.5 | 0.00 | 0.00 | 0.00 | 22 | 1003.1 |
| 20260502022945 | 84 | 11 | 0.0 | 1.7 | 0.00 | 0.00 | 0.00 | 21 | 1003.1 |
| 20260502022441 | 85 | 82 | 0.0 | 1.7 | 0.00 | 0.00 | 0.00 | 21 | 1003.0 |
| 20260502021938 | 84 | 20 | 0.9 | 1.7 | 0.00 | 0.00 | 0.00 | 22 | 1002.9 |
| 20260502021436 | 85 | 90 | 0.0 | 1.7 | 0.00 | 0.00 | 0.00 | 21 | 1002.9 |
| 20260502020933 | 85 | 77 | 0.0 | 1.7 | 0.00 | 0.00 | 0.00 | 21 | 1003.1 |
| 20260502020431 | 85 | 23 | 0.0 | 1.7 | 0.00 | 0.00 | 0.00 | 20 | 1002.7 |
| 20260502015927 | 86 | 40 | 0.0 | 1.7 | 0.00 | 0.00 | 0.00 | 20 | 1002.8 |
| 20260502015425 | 86 | 23 | 0.9 | 1.7 | 0.00 | 0.00 | 0.00 | 21 | 1002.9 |
| 20260502014921 | 86 | 26 | 0.0 | 1.7 | 0.00 | 0.00 | 0.00 | 21 | 1002.8 |
| 20260502014419 | 86 | 23 | 0.0 | 1.7 | 0.00 | 0.00 | 0.00 | 19 | 1002.8 |
| 20260502013915 | 86 | 29 | 0.0 | 1.7 | 0.00 | 0.00 | 0.00 | 19 | 1002.7 |
| 20260502013410 | 86 | 26 | 0.9 | 1.7 | 0.00 | 0.00 | 0.00 | 20 | 1002.8 |
| 20260502012907 | 86 | 60 | 0.9 | 1.7 | 0.00 | 0.00 | 0.00 | 20 | 1002.5 |
| 20260502012405 | 87 | 60 | 0.9 | 2.6 | 0.00 | 0.00 | 0.00 | 20 | 1002.7 |
| 20260502011902 | 87 | 90 | 0.9 | 1.7 | 0.00 | 0.00 | 0.00 | 19 | 1002.7 |
| 20260502011358 | 88 | 54 | 0.9 | 2.6 | 0.00 | 0.00 | 0.00 | 19 | 1002.8 |
| 20260502010855 | 89 | 26 | 1.7 | 2.6 | 0.00 | 0.00 | 0.00 | 20 | 1002.7 |
| 20260502010352 | 89 | 54 | 0.9 | 1.7 | 0.00 | 0.00 | 0.00 | 20 | 1002.9 |
| 20260502005848 | 90 | 4 | 1.7 | 3.5 | 0.00 | 0.00 | 0.00 | 21 | 1002.9 |
| 20260502005346 | 89 | 15 | 0.0 | 2.6 | 0.00 | 0.00 | 0.00 | 19 | 1003.1 |
| 20260502004843 | 90 | 57 | 0.0 | 2.6 | 0.00 | 0.00 | 0.00 | 19 | 1002.8 |
| 20260502004340 | 92 | 18 | 1.7 | 1.7 | 0.00 | 0.00 | 0.00 | 20 | 1003.0 |
| 20260502003837 | 90 | 327 | 1.7 | 2.6 | 0.00 | 0.00 | 0.00 | 20 | 1002.7 |
| 20260502003334 | 90 | 0 | 1.7 | 2.6 | 0.00 | 0.00 | 0.00 | 21 | 1003.0 |
| 20260502002831 | 89 | 56 | 0.0 | 2.6 | 0.00 | 0.00 | 0.00 | 21 | 1002.8 |
| 20260502002328 | 89 | 12 | 0.9 | 1.7 | 0.00 | 0.00 | 0.00 | 20 | 1003.0 |
| 20260502001825 | 90 | 75 | 0.0 | 1.7 | 0.00 | 0.00 | 0.00 | 20 | 1003.0 |
| 20260502001323 | 89 | 22 | 1.7 | 1.7 | 0.00 | 0.00 | 0.00 | 24 | 1002.8 |
| 20260502000820 | 90 | 23 | 1.7 | 1.7 | 0.00 | 0.00 | 0.00 | 23 | 1003.1 |
| 20260502000318 | 91 | 37 | 1.7 | 4.3 | 0.00 | 0.00 | 0.00 | 22 | 1003.0 |
| 20260501235814 | 90 | 34 | 2.6 | 5.2 | 0.00 | 0.00 | 0.00 | 21 | 1002.9 |
| 20260501235310 | 91 | 292 | 2.6 | 4.3 | 0.00 | 0.00 | 0.00 | 20 | 1003.2 |
| 20260501234805 | 90 | 36 | 1.7 | 2.6 | 0.00 | 0.00 | 0.00 | 23 | 1003.0 |
| 20260501234303 | 90 | 37 | 1.7 | 2.6 | 0.00 | 0.00 | 0.00 | 20 | 1002.9 |
| 20260501233801 | 90 | 341 | 2.6 | 4.3 | 0.00 | 0.00 | 0.00 | 22 | 1003.0 |
| 20260501233258 | 89 | 48 | 1.7 | 2.6 | 0.00 | 0.00 | 0.00 | 23 | 1003.1 |
| 20260501232753 | 89 | 19 | 1.7 | 2.6 | 0.00 | 0.00 | 0.00 | 24 | 1003.0 |
| 20260501232251 | 89 | 64 | 2.6 | 2.6 | 0.00 | 0.00 | 0.00 | 22 | 1003.1 |
| 20260501231748 | 88 | 315 | 2.6 | 6.1 | 0.00 | 0.00 | 0.00 | 22 | 1003.1 |
| 20260501231247 | 90 | 343 | 2.6 | 5.2 | 0.00 | 0.00 | 0.00 | 21 | 1003.0 |
| 20260501230745 | 90 | 32 | 1.7 | 4.3 | 0.00 | 0.00 | 0.00 | 22 | 1003.1 |
| 20260501230243 | 91 | 350 | 1.7 | 3.5 | 0.00 | 0.00 | 0.00 | 20 | 1003.2 |
| 20260501225740 | 90 | 23 | 1.7 | 2.6 | 0.00 | 0.00 | 0.00 | 23 | 1003.3 |
| 20260501225237 | 89 | 30 | 0.0 | 2.6 | 0.00 | 0.00 | 0.00 | 21 | 1003.4 |
| 20260501224733 | 89 | 30 | 0.0 | 4.3 | 0.00 | 0.00 | 0.00 | 20 | 1003.5 |
| 20260501224231 | 88 | 35 | 0.9 | 2.6 | 0.00 | 0.00 | 0.00 | 23 | 1003.4 |
| 20260501223727 | 87 | 30 | 1.7 | 2.6 | 0.00 | 0.00 | 0.00 | 26 | 1003.6 |
| 20260501223224 | 87 | 74 | 0.9 | 2.6 | 0.00 | 0.00 | 0.00 | 22 | 1003.6 |
| 20260501222720 | 88 | 12 | 0.9 | 4.3 | 0.00 | 0.00 | 0.00 | 22 | 1004.0 |
| 20260501222217 | 88 | 340 | 0.9 | 3.5 | 0.00 | 0.00 | 0.00 | 21 | 1004.0 |
| 20260501221714 | 87 | 97 | 0.9 | 2.6 | 0.00 | 0.00 | 0.00 | 21 | 1004.0 |
| 20260501221211 | 87 | 105 | 0.9 | 2.6 | 0.00 | 0.00 | 0.00 | 21 | 1004.0 |
| 20260501220709 | 88 | 15 | 1.7 | 1.7 | 0.00 | 0.00 | 0.00 | 22 | 1004.0 |
| 20260501220206 | 87 | 30 | 1.7 | 1.7 | 0.00 | 0.00 | 0.00 | 22 | 1003.8 |
| 20260501215703 | 88 | 29 | 1.7 | 3.5 | 0.00 | 0.00 | 0.00 | 23 | 1004.1 |
| 20260501215158 | 87 | 98 | 0.9 | 1.7 | 0.00 | 0.00 | 0.00 | 22 | 1004.4 |
| 20260501214653 | 86 | 358 | 3.5 | 6.1 | 0.00 | 0.00 | 0.00 | 23 | 1004.4 |
| 20260501214148 | 86 | 38 | 1.7 | 2.6 | 0.00 | 0.00 | 0.00 | 26 | 1004.4 |
| 20260501213646 | 85 | 37 | 0.0 | 4.3 | 0.00 | 0.00 | 0.00 | 24 | 1004.5 |
| 20260501213141 | 87 | 16 | 1.7 | 2.6 | 0.00 | 0.00 | 0.00 | 26 | 1004.7 |
| 20260501212638 | 86 | 37 | 1.7 | 2.6 | 0.00 | 0.00 | 0.00 | 26 | 1004.6 |
| 20260501212135 | 85 | 117 | 1.7 | 1.7 | 0.00 | 0.00 | 0.00 | 24 | 1005.1 |
| 20260501211632 | 86 | 33 | 1.7 | 1.7 | 0.00 | 0.00 | 0.00 | 26 | 1005.1 |
| 20260501211130 | 87 | 0 | 1.7 | 1.7 | 0.00 | 0.00 | 0.00 | 27 | 1005.1 |
| 20260501210626 | 84 | 25 | 2.6 | 3.5 | 0.00 | 0.00 | 0.00 | 26 | 1005.1 |
| 20260501210123 | 86 | 40 | 1.7 | 1.7 | 0.00 | 0.00 | 0.00 | 26 | 1005.3 |
| 20260501205619 | 86 | 352 | 0.9 | 2.6 | 0.00 | 0.00 | 0.00 | 26 | 1005.0 |
| 20260501205117 | 85 | 191 | 1.7 | 7.0 | 0.00 | 0.00 | 0.00 | 25 | 1005.1 |
| 20260501204613 | 84 | 0 | 2.6 | 3.5 | 0.00 | 0.00 | 0.00 | 25 | 1005.2 |
| 20260501204109 | 84 | 350 | 1.7 | 2.6 | 0.00 | 0.00 | 0.00 | 28 | 1005.3 |
| 20260501203606 | 84 | 54 | 0.0 | 2.6 | 0.00 | 0.00 | 0.00 | 27 | 1005.4 |
| 20260501203103 | 85 | 90 | 0.9 | 1.7 | 0.00 | 0.00 | 0.00 | 25 | 1005.5 |
| 20260501202600 | 84 | 0 | 2.6 | 3.5 | 0.00 | 0.00 | 0.00 | 26 | 1005.7 |
| 20260501202057 | 84 | 348 | 2.6 | 5.2 | 0.00 | 0.00 | 0.00 | 27 | 1005.4 |
| 20260501201554 | 84 | 66 | 0.0 | 2.6 | 0.00 | 0.00 | 0.00 | 26 | 1005.6 |
| 20260501201050 | 84 | 19 | 2.6 | 2.6 | 0.00 | 0.00 | 0.00 | 27 | 1005.8 |
| 20260501200548 | 83 | 337 | 2.6 | 3.5 | 0.00 | 0.00 | 0.00 | 27 | 1005.8 |
| 20260501200045 | 83 | 349 | 1.7 | 2.6 | 0.00 | 0.00 | 0.00 | 30 | 1005.7 |
| 20260501195542 | 83 | 77 | 0.9 | 2.6 | 0.00 | 0.00 | 0.00 | 28 | 1005.8 |
| 20260501195038 | 84 | 39 | 0.0 | 3.5 | 0.00 | 0.00 | 0.00 | 28 | 1005.9 |
| 20260501194533 | 83 | 26 | 2.6 | 2.6 | 0.00 | 0.00 | 0.00 | 29 | 1005.9 |
| 20260501194029 | 82 | 342 | 1.7 | 2.6 | 0.00 | 0.00 | 0.00 | 30 | 1005.9 |
| 20260501193527 | 82 | 345 | 3.5 | 3.5 | 0.00 | 0.00 | 0.00 | 28 | 1006.0 |
| 20260501193026 | 81 | 33 | 1.7 | 1.7 | 0.00 | 0.00 | 0.00 | 28 | 1006.0 |
| 20260501192522 | 82 | 30 | 1.7 | 2.6 | 0.00 | 0.00 | 0.00 | 30 | 1006.1 |
| 20260501192020 | 83 | 90 | 0.9 | 4.3 | 0.00 | 0.00 | 0.00 | 28 | 1006.3 |
| 20260501191516 | 82 | 32 | 0.0 | 1.7 | 0.00 | 0.00 | 0.00 | 30 | 1006.3 |
| 20260501191014 | 82 | 16 | 1.7 | 1.7 | 0.00 | 0.00 | 0.00 | 30 | 1006.5 |
| 20260501190509 | 81 | 40 | 1.7 | 2.6 | 0.00 | 0.00 | 0.00 | 32 | 1006.3 |
| 20260501190005 | 81 | 17 | 3.5 | 3.5 | 0.00 | 0.00 | 0.00 | 31 | 1006.4 |
| 20260501185501 | 81 | 23 | 0.9 | 2.6 | 0.00 | 0.00 | 0.00 | 31 | 1006.6 |
| 20260501184957 | 82 | 314 | 3.5 | 4.3 | 0.00 | 0.00 | 0.00 | 30 | 1006.4 |
| 20260501184453 | 81 | 105 | 1.7 | 2.6 | 0.00 | 0.00 | 0.00 | 31 | 1006.6 |
| 20260501183948 | 81 | 330 | 3.5 | 3.5 | 0.00 | 0.00 | 0.00 | 31 | 1006.7 |
| 20260501183446 | 82 | 70 | 0.0 | 2.6 | 0.00 | 0.00 | 0.00 | 32 | 1006.9 |
| 20260501182942 | 80 | 56 | 0.0 | 2.6 | 0.00 | 0.00 | 0.00 | 34 | 1007.0 |
| 20260501182439 | 80 | 19 | 1.7 | 2.6 | 0.00 | 0.00 | 0.00 | 33 | 1006.9 |
| 20260501181935 | 80 | 20 | 0.9 | 2.6 | 0.00 | 0.00 | 0.00 | 33 | 1006.9 |
| 20260501181433 | 80 | 63 | 1.7 | 1.7 | 0.00 | 0.00 | 0.00 | 33 | 1007.0 |
| 20260501180930 | 80 | 20 | 0.0 | 3.5 | 0.00 | 0.00 | 0.00 | 33 | 1006.9 |
| 20260501180427 | 80 | 15 | 1.7 | 1.7 | 0.00 | 0.00 | 0.00 | 35 | 1007.1 |
| 20260501175923 | 81 | 24 | 1.7 | 4.3 | 0.00 | 0.00 | 0.00 | 32 | 1007.3 |
| 20260501175421 | 81 | 21 | 1.7 | 1.7 | 0.00 | 0.00 | 0.00 | 33 | 1007.3 |
| 20260501174917 | 80 | 26 | 1.7 | 1.7 | 0.00 | 0.00 | 0.00 | 33 | 1007.2 |
| 20260501174415 | 80 | 60 | 1.7 | 2.6 | 0.00 | 0.00 | 0.00 | 34 | 1007.6 |
| 20260501173912 | 80 | 41 | 1.7 | 1.7 | 0.00 | 0.00 | 0.00 | 33 | 1007.5 |
| 20260501173410 | 80 | 56 | 1.7 | 3.5 | 0.00 | 0.00 | 0.00 | 32 | 1007.7 |
| 20260501172905 | 78 | 14 | 2.6 | 4.3 | 0.00 | 0.00 | 0.00 | 33 | 1007.2 |
| 20260501172400 | 79 | 99 | 0.0 | 1.7 | 0.00 | 0.00 | 0.00 | 33 | 1007.7 |
| 20260501171856 | 79 | 321 | 2.6 | 3.5 | 0.00 | 0.00 | 0.00 | 34 | 1007.6 |
| 20260501171353 | 79 | 18 | 0.9 | 2.6 | 0.00 | 0.00 | 0.00 | 34 | 1007.5 |
| 20260501170849 | 78 | 69 | 0.0 | 1.7 | 0.00 | 0.00 | 0.00 | 34 | 1007.8 |
| 20260501170346 | 78 | 0 | 1.7 | 4.3 | 0.00 | 0.00 | 0.00 | 35 | 1007.6 |
| 20260501165844 | 77 | 48 | 1.7 | 2.6 | 0.00 | 0.00 | 0.00 | 36 | 1007.6 |
| 20260501165342 | 76 | 19 | 1.7 | 1.7 | 0.00 | 0.00 | 0.00 | 36 | 1007.6 |
| 20260501164839 | 75 | 40 | 0.0 | 1.7 | 0.00 | 0.00 | 0.00 | 38 | 1007.7 |
| 20260501164337 | 75 | 53 | 1.7 | 1.7 | 0.00 | 0.00 | 0.00 | 37 | 1007.6 |
| 20260501163832 | 76 | 340 | 2.6 | 3.5 | 0.00 | 0.00 | 0.00 | 36 | 1007.7 |
| 20260501163329 | 75 | 54 | 0.9 | 1.7 | 0.00 | 0.00 | 0.00 | 37 | 1007.8 |
| 20260501162826 | 75 | 23 | 1.7 | 1.7 | 0.00 | 0.00 | 0.00 | 38 | 1007.7 |
| 20260501162323 | 75 | 16 | 1.7 | 1.7 | 0.00 | 0.00 | 0.00 | 39 | 1007.5 |
| 20260501161820 | 75 | 81 | 0.0 | 1.7 | 0.00 | 0.00 | 0.00 | 38 | 1007.5 |
| 20260501161317 | 74 | 19 | 1.7 | 4.3 | 0.00 | 0.00 | 0.00 | 38 | 1007.8 |
| 20260501160813 | 74 | 35 | 0.9 | 1.7 | 0.00 | 0.00 | 0.00 | 39 | 1007.5 |
| 20260501160310 | 74 | 66 | 0.9 | 2.6 | 0.00 | 0.00 | 0.00 | 38 | 1007.5 |
| 20260501155808 | 73 | 66 | 0.9 | 1.7 | 0.00 | 0.00 | 0.00 | 39 | 1007.6 |
| 20260501155306 | 74 | 23 | 0.9 | 1.7 | 0.00 | 0.00 | 0.00 | 41 | 1007.3 |
| 20260501154801 | 73 | 54 | 0.9 | 2.6 | 0.00 | 0.00 | 0.00 | 40 | 1007.3 |
| 20260501154258 | 73 | 69 | 0.0 | 2.6 | 0.00 | 0.00 | 0.00 | 40 | 1007.5 |
| 20260501153755 | 72 | 66 | 0.9 | 2.6 | 0.00 | 0.00 | 0.00 | 40 | 1007.2 |
| 20260501153253 | 72 | 69 | 0.0 | 1.7 | 0.00 | 0.00 | 0.00 | 41 | 1006.9 |